Time;durP1;ratioP1;P1;durP2;ratioP2;P2;SDS_P1;SDS_P2;PMS_P1;PMS_P2;Temp;Humidity;BMP_temperature;BMP_pressure;BME280_temperature;BME280_humidity;BME280_pressure;Samples;Min_cycle;Max_cycle;Signal;HPM_P1;HPM_P2
2023/06/10 00:00:34;;;;;;;;;14.25;12.25;;;;;;;;2008041;28;1827995;-78
2023/06/10 00:01:46;;;;;;;;;14.50;10.50;;;;;;;;1944879;28;2789839;-83
2023/06/10 00:02:57;;;;;;;;;11.50;11.50;;;;;;;;1946876;28;2789872;-82
2023/06/10 00:04:10;;;;;;;;;11.57;11.57;;;;;;;;1977506;28;2806513;-84
2023/06/10 00:05:21;;;;;;;;;14.00;11.00;;;;;;;;1976841;28;2803397;-83
2023/06/10 00:06:35;;;;;;;;;5.50;5.50;;;;;;;;1960123;28;2727369;-84
2023/06/10 00:07:46;;;;;;;;;9.50;9.50;;;;;;;;1982278;28;2771090;-83
2023/06/10 00:08:57;;;;;;;;;10.67;10.67;;;;;;;;1977030;28;3517165;-83
2023/06/10 00:10:10;;;;;;;;;10.50;9.33;;;;;;;;2002937;28;2787732;-84
2023/06/10 00:11:21;;;;;;;;;8.67;8.67;;;;;;;;1957208;28;2750250;-85
2023/06/10 00:12:37;;;;;;;;;10.57;10.00;;;;;;;;2007815;28;1823226;-84
2023/06/10 00:13:48;;;;;;;;;11.00;10.50;;;;;;;;1980089;28;2787810;-84
2023/06/10 00:15:00;;;;;;;;;14.86;12.29;;;;;;;;1984781;28;2805460;-84
2023/06/10 00:16:11;;;;;;;;;11.00;10.00;;;;;;;;1979010;28;2790264;-84
2023/06/10 00:17:23;;;;;;;;;8.50;8.50;;;;;;;;1979459;28;2745689;-83
2023/06/10 00:18:36;;;;;;;;;11.00;11.00;;;;;;;;1983008;28;2790889;-86
2023/06/10 00:19:47;;;;;;;;;12.00;10.00;;;;;;;;1962744;28;2789867;-86
2023/06/10 00:21:03;;;;;;;;;12.00;11.00;;;;;;;;1983655;28;2788816;-85
2023/06/10 00:22:13;;;;;;;;;11.50;10.50;;;;;;;;1953124;28;2788794;-86
2023/06/10 00:23:24;;;;;;;;;12.50;11.50;;;;;;;;1954989;28;2795410;-86
2023/06/10 00:24:35;;;;;;;;;11.00;11.00;;;;;;;;1956083;28;2783961;-85
2023/06/10 00:25:48;;;;;;;;;12.33;11.00;;;;;;;;1986822;28;2798240;-86
2023/06/10 00:27:00;;;;;;;;;10.17;9.50;;;;;;;;1982875;28;2791931;-86
2023/06/10 00:28:13;;;;;;;;;9.50;8.33;;;;;;;;1985932;28;2770037;-85
2023/06/10 00:29:23;;;;;;;;;10.50;10.50;;;;;;;;1983024;28;2781529;-85
2023/06/10 00:30:34;;;;;;;;;12.00;11.50;;;;;;;;1976201;28;2812720;-84
2023/06/10 00:31:46;;;;;;;;;11.00;10.00;;;;;;;;1964186;28;2787784;-85
2023/06/10 00:32:56;;;;;;;;;12.50;10.50;;;;;;;;1954711;28;2794018;-84
2023/06/10 00:34:08;;;;;;;;;12.00;11.00;;;;;;;;2006913;28;2786719;-84
2023/06/10 00:35:20;;;;;;;;;11.17;10.17;;;;;;;;1976476;28;2789824;-84
2023/06/10 00:36:32;;;;;;;;;11.20;10.40;;;;;;;;1979835;28;3515887;-80
2023/06/10 00:37:43;;;;;;;;;13.00;12.00;;;;;;;;1989145;28;2796104;-80
2023/06/10 00:38:54;;;;;;;;;12.75;11.75;;;;;;;;1983251;28;2789321;-80
2023/06/10 00:40:06;;;;;;;;;12.00;11.00;;;;;;;;1977697;28;2792040;-87
2023/06/10 00:41:16;;;;;;;;;13.00;10.50;;;;;;;;1957995;28;2792318;-86
2023/06/10 00:42:27;;;;;;;;;10.00;10.00;;;;;;;;1972620;28;2784631;-82
2023/06/10 00:43:39;;;;;;;;;12.20;11.80;;;;;;;;2007017;28;2808076;-82
2023/06/10 00:44:53;;;;;;;;;12.00;12.00;;;;;;;;1983885;28;2784679;-82
2023/06/10 00:46:04;;;;;;;;;12.50;11.00;;;;;;;;1962486;28;2788793;-83
2023/06/10 00:47:15;;;;;;;;;7.50;7.50;;;;;;;;1982865;28;2748136;-82
2023/06/10 00:48:26;;;;;;;;;10.00;10.00;;;;;;;;2005325;28;2790888;-82
2023/06/10 00:49:37;;;;;;;;;10.50;10.00;;;;;;;;1989552;28;2785735;-82
2023/06/10 00:50:48;;;;;;;;;10.50;10.00;;;;;;;;1996620;28;2790884;-81
2023/06/10 00:51:59;;;;;;;;;8.00;8.00;;;;;;;;1967358;28;2746084;-81
2023/06/10 00:53:10;;;;;;;;;10.00;8.00;;;;;;;;1981112;28;2757564;-81
2023/06/10 00:54:23;;;;;;;;;11.60;11.00;;;;;;;;2016080;28;1820106;-81
2023/06/10 00:55:33;;;;;;;;;9.00;8.00;;;;;;;;1966376;28;2041983;-81
2023/06/10 00:56:47;;;;;;;;;11.00;11.00;;;;;;;;2013016;28;1819027;-81
2023/06/10 00:57:57;;;;;;;;;9.50;9.00;;;;;;;;1976123;28;2759724;-81
2023/06/10 00:59:08;;;;;;;;;9.00;9.00;;;;;;;;1968922;28;2750258;-81
2023/06/10 01:00:19;;;;;;;;;13.00;12.00;;;;;;;;2004884;28;2811814;-81
2023/06/10 01:01:32;;;;;;;;;10.50;9.50;;;;;;;;1979002;28;2782041;-81
2023/06/10 01:02:42;;;;;;;;;15.50;11.00;;;;;;;;1961932;28;2789879;-82
2023/06/10 01:03:54;;;;;;;;;10.17;10.17;;;;;;;;1984927;28;2791910;-81
2023/06/10 01:05:05;;;;;;;;;11.50;10.00;;;;;;;;1985701;28;2788801;-81
2023/06/10 01:06:29;;;;;;;;;10.60;10.60;;;;;;;;1988021;28;1827432;-82
2023/06/10 01:07:42;;;;;;;;;7.50;7.50;;;;;;;;1985649;28;2739889;-81
2023/06/10 01:09:18;;;;;;;;;8.83;8.33;;;;;;;;2018452;28;1820110;-81
2023/06/10 01:10:37;;;;;;;;;13.33;11.17;;;;;;;;1994799;28;1820109;-81
2023/06/10 01:11:52;;;;;;;;;13.00;9.00;;;;;;;;1962610;28;2766943;-81
2023/06/10 01:13:11;;;;;;;;;10.50;9.50;;;;;;;;1993799;28;1820102;-81
2023/06/10 01:14:24;;;;;;;;;9.60;9.60;;;;;;;;1983222;28;2759625;-81
2023/06/10 01:15:35;;;;;;;;;11.60;11.00;;;;;;;;1992871;28;3508525;-81
2023/06/10 01:16:46;;;;;;;;;11.00;9.50;;;;;;;;1996846;28;2774212;-83
2023/06/10 01:17:58;;;;;;;;;10.50;10.50;;;;;;;;1988817;28;1824252;-80
2023/06/10 01:19:12;;;;;;;;;10.33;10.00;;;;;;;;2014477;28;1824256;-80
2023/06/10 01:20:24;;;;;;;;;11.00;8.50;;;;;;;;1962264;28;2773562;-87
2023/06/10 01:21:35;;;;;;;;;13.50;10.50;;;;;;;;1953274;28;2791938;-88
2023/06/10 01:22:45;;;;;;;;;10.50;10.50;;;;;;;;1955190;28;2787745;-88
2023/06/10 01:23:58;;;;;;;;;11.50;11.17;;;;;;;;2002366;28;2792976;-88
2023/06/10 01:25:11;;;;;;;;;13.33;11.67;;;;;;;;1993486;28;2789875;-88
2023/06/10 01:26:25;;;;;;;;;10.00;10.00;;;;;;;;1959321;28;2772620;-88
2023/06/10 01:27:39;;;;;;;;;10.50;10.50;;;;;;;;1951796;28;2798152;-83
2023/06/10 01:28:54;;;;;;;;;11.00;11.00;;;;;;;;1961615;28;2786710;-84
2023/06/10 01:30:22;;;;;;;;;8.67;8.67;;;;;;;;1986127;28;1820577;-84
2023/06/10 01:31:56;;;;;;;;;11.40;9.60;;;;;;;;1980438;28;2774195;-87
2023/06/10 01:33:09;;;;;;;;;14.40;11.60;;;;;;;;1993990;28;2785678;-87
2023/06/10 01:34:20;;;;;;;;;12.00;10.00;;;;;;;;1953263;28;2779400;-88
2023/06/10 01:35:31;;;;;;;;;16.00;11.00;;;;;;;;1958665;28;2798152;-80
2023/06/10 01:36:44;;;;;;;;;12.00;12.00;;;;;;;;1976190;28;2810767;-79
2023/06/10 01:37:57;;;;;;;;;13.00;10.00;;;;;;;;1961584;28;2787763;-88
2023/06/10 01:39:08;;;;;;;;;8.00;6.00;;;;;;;;1977193;28;3450241;-88
2023/06/10 01:40:20;;;;;;;;;10.60;10.00;;;;;;;;1982331;28;2783563;-87
2023/06/10 01:41:32;;;;;;;;;8.50;8.50;;;;;;;;1962015;28;2754932;-85
2023/06/10 01:42:44;;;;;;;;;12.00;10.00;;;;;;;;1997810;28;2787712;-85
2023/06/10 01:43:56;;;;;;;;;10.33;9.17;;;;;;;;1977762;28;2777367;-85
2023/06/10 01:45:08;;;;;;;;;12.50;11.00;;;;;;;;1973009;28;2801313;-85
2023/06/10 01:46:21;;;;;;;;;7.00;7.00;;;;;;;;1982299;28;1807650;-85
2023/06/10 01:47:34;;;;;;;;;10.17;9.67;;;;;;;;2015384;28;1819134;-85
2023/06/10 01:48:46;;;;;;;;;10.00;10.00;;;;;;;;1975954;28;2788103;-85
2023/06/10 01:49:57;;;;;;;;;8.50;8.00;;;;;;;;1973109;28;2740884;-85
2023/06/10 01:51:08;;;;;;;;;9.00;9.00;;;;;;;;1978961;28;2739817;-85
2023/06/10 01:52:19;;;;;;;;;9.00;8.50;;;;;;;;2000983;28;2735690;-85
2023/06/10 01:53:31;;;;;;;;;9.67;9.67;;;;;;;;2007559;28;2772135;-85
2023/06/10 01:54:42;;;;;;;;;11.50;9.00;;;;;;;;1969525;28;2772191;-85
2023/06/10 01:55:53;;;;;;;;;8.83;8.50;;;;;;;;1991907;28;2766947;-85
2023/06/10 01:57:06;;;;;;;;;10.25;9.50;;;;;;;;2011945;28;1822122;-85
2023/06/10 01:58:16;;;;;;;;;8.50;8.00;;;;;;;;1976831;28;2744003;-85
2023/06/10 01:59:27;;;;;;;;;11.00;9.67;;;;;;;;2003517;28;1821227;-85
2023/06/10 02:00:40;;;;;;;;;10.33;9.33;;;;;;;;2008358;28;1819029;-83
2023/06/10 02:01:50;;;;;;;;;9.50;9.50;;;;;;;;1981255;28;2762738;-83
2023/06/10 02:03:01;;;;;;;;;12.00;9.00;;;;;;;;1973109;28;2773190;-84
2023/06/10 02:04:12;;;;;;;;;9.00;8.50;;;;;;;;1997063;28;2740349;-83
2023/06/10 02:05:23;;;;;;;;;10.00;9.00;;;;;;;;2001391;28;2770053;-83
2023/06/10 02:06:35;;;;;;;;;12.67;10.67;;;;;;;;2006295;28;2794416;-83
2023/06/10 02:07:46;;;;;;;;;10.00;9.00;;;;;;;;1983165;28;2760702;-83
2023/06/10 02:08:57;;;;;;;;;10.00;9.50;;;;;;;;2012369;28;1823264;-83
2023/06/10 02:10:08;;;;;;;;;13.00;11.75;;;;;;;;2000922;28;1835783;-81
2023/06/10 02:11:19;;;;;;;;;8.75;8.25;;;;;;;;2013803;28;1824340;-83
2023/06/10 02:12:29;;;;;;;;;10.00;10.00;;;;;;;;1985749;28;2783573;-82
2023/06/10 02:13:40;;;;;;;;;10.00;10.00;;;;;;;;1978155;28;2783585;-82
2023/06/10 02:14:51;;;;;;;;;12.00;10.00;;;;;;;;1998367;28;2779527;-82
2023/06/10 02:16:02;;;;;;;;;10.00;9.00;;;;;;;;2007071;28;1821112;-83
2023/06/10 02:17:15;;;;;;;;;9.50;9.00;;;;;;;;2011991;28;1820054;-82
2023/06/10 02:18:28;;;;;;;;;10.00;9.67;;;;;;;;2006947;28;1821179;-83
2023/06/10 02:19:42;;;;;;;;;8.00;8.00;;;;;;;;1954492;28;2750289;-83
2023/06/10 02:20:52;;;;;;;;;12.00;8.00;;;;;;;;1960251;28;2766931;-83
2023/06/10 02:22:04;;;;;;;;;9.83;9.00;;;;;;;;2008785;28;2766955;-82
2023/06/10 02:23:15;;;;;;;;;12.75;11.50;;;;;;;;1982509;28;2787728;-83
2023/06/10 02:24:26;;;;;;;;;11.50;9.00;;;;;;;;1984646;28;2761727;-86
2023/06/10 02:25:38;;;;;;;;;9.67;8.50;;;;;;;;1994162;28;2771109;-86
2023/06/10 02:26:50;;;;;;;;;10.50;7.25;;;;;;;;1984213;28;1820598;-86
2023/06/10 02:28:00;;;;;;;;;9.00;8.00;;;;;;;;1980823;28;2737786;-86
2023/06/10 02:29:12;;;;;;;;;7.25;7.25;;;;;;;;1981930;28;1826420;-86
2023/06/10 02:30:25;;;;;;;;;8.67;8.17;;;;;;;;2009008;28;1819040;-86
2023/06/10 02:31:35;;;;;;;;;10.00;10.00;;;;;;;;1945039;28;2794041;-85
2023/06/10 02:32:47;;;;;;;;;8.00;8.00;;;;;;;;1967830;28;2750277;-85
2023/06/10 02:33:58;;;;;;;;;9.00;9.00;;;;;;;;1978188;28;2756511;-86
2023/06/10 02:35:12;;;;;;;;;8.50;7.50;;;;;;;;1996267;28;2733978;-82
2023/06/10 02:36:23;;;;;;;;;9.50;9.50;;;;;;;;1972557;28;2762790;-83
2023/06/10 02:37:34;;;;;;;;;9.00;9.00;;;;;;;;1967836;28;2758630;-82
2023/06/10 02:38:45;;;;;;;;;10.25;9.75;;;;;;;;1979627;28;1827330;-80
2023/06/10 02:39:57;;;;;;;;;9.40;8.60;;;;;;;;1990651;28;1821092;-82
2023/06/10 02:41:07;;;;;;;;;7.00;7.00;;;;;;;;1945400;28;2746056;-82
2023/06/10 02:42:19;;;;;;;;;11.00;8.50;;;;;;;;1996273;28;2769007;-82
2023/06/10 02:43:29;;;;;;;;;8.00;8.00;;;;;;;;1978102;28;3463727;-82
2023/06/10 02:44:40;;;;;;;;;9.50;9.50;;;;;;;;1988266;28;2762801;-82
2023/06/10 02:45:52;;;;;;;;;10.50;9.00;;;;;;;;1975334;28;2779778;-83
2023/06/10 02:47:03;;;;;;;;;9.25;7.75;;;;;;;;1992909;28;1819094;-83
2023/06/10 02:48:13;;;;;;;;;9.00;9.00;;;;;;;;1975544;28;2750265;-83
2023/06/10 02:49:27;;;;;;;;;8.33;6.33;;;;;;;;1984227;28;1814881;-87
2023/06/10 02:50:39;;;;;;;;;11.50;10.00;;;;;;;;1975608;28;2782013;-90
2023/06/10 02:51:53;;;;;;;;;10.33;8.17;;;;;;;;1985882;28;1819124;-87
2023/06/10 02:53:04;;;;;;;;;8.50;8.00;;;;;;;;1945489;28;2746084;-87
2023/06/10 02:54:16;;;;;;;;;11.00;10.50;;;;;;;;1953022;28;2787748;-87
2023/06/10 02:55:30;;;;;;;;;11.00;9.86;;;;;;;;1975185;28;1818016;-88
2023/06/10 02:56:41;;;;;;;;;11.00;8.00;;;;;;;;1974633;28;2766958;-86
2023/06/10 02:57:54;;;;;;;;;11.00;10.00;;;;;;;;1958917;28;2793981;-85
2023/06/10 02:59:07;;;;;;;;;10.50;10.50;;;;;;;;1954158;28;2787764;-86
2023/06/10 03:00:20;;;;;;;;;9.50;8.00;;;;;;;;1953875;28;2752393;-86
2023/06/10 03:01:36;;;;;;;;;11.86;9.29;;;;;;;;1991103;28;1820054;-86
2023/06/10 03:02:46;;;;;;;;;11.50;8.50;;;;;;;;1984139;28;2769025;-85
2023/06/10 03:03:58;;;;;;;;;10.67;9.50;;;;;;;;2008624;28;2777309;-86
2023/06/10 03:05:10;;;;;;;;;10.00;8.67;;;;;;;;1974400;28;2769059;-85
2023/06/10 03:06:24;;;;;;;;;9.50;9.50;;;;;;;;1979665;28;1819541;-85
2023/06/10 03:07:35;;;;;;;;;8.00;7.00;;;;;;;;1969784;28;2723182;-86
2023/06/10 03:08:45;;;;;;;;;9.50;9.00;;;;;;;;1970904;28;2751299;-86
2023/06/10 03:09:57;;;;;;;;;10.40;8.20;;;;;;;;1983096;28;1818993;-85
2023/06/10 03:11:08;;;;;;;;;10.00;9.00;;;;;;;;1981946;28;2763762;-85
2023/06/10 03:12:18;;;;;;;;;10.50;10.50;;;;;;;;1981361;28;2787092;-82
2023/06/10 03:13:30;;;;;;;;;9.83;9.50;;;;;;;;1983664;28;2779427;-82
2023/06/10 03:14:41;;;;;;;;;9.75;9.00;;;;;;;;1990875;28;1820078;-82
2023/06/10 03:15:52;;;;;;;;;14.00;12.50;;;;;;;;1971818;28;2785681;-82
2023/06/10 03:17:03;;;;;;;;;9.25;7.25;;;;;;;;1983405;28;1820122;-86
2023/06/10 03:18:13;;;;;;;;;8.00;8.00;;;;;;;;1973083;28;2750254;-86
2023/06/10 03:19:24;;;;;;;;;9.00;9.00;;;;;;;;1964278;28;2746103;-86
2023/06/10 03:20:36;;;;;;;;;9.33;9.33;;;;;;;;2005935;28;2775313;-84
2023/06/10 03:21:49;;;;;;;;;9.50;8.00;;;;;;;;1958135;28;2752361;-84
2023/06/10 03:23:00;;;;;;;;;11.00;10.00;;;;;;;;1975768;28;2783944;-84
2023/06/10 03:24:10;;;;;;;;;7.50;7.50;;;;;;;;1973808;28;2744052;-84
2023/06/10 03:25:21;;;;;;;;;7.00;7.00;;;;;;;;2002500;28;2746110;-84
2023/06/10 03:26:32;;;;;;;;;9.50;8.50;;;;;;;;2008084;28;2754448;-84
2023/06/10 03:27:43;;;;;;;;;9.00;9.00;;;;;;;;2000873;28;2741941;-84
2023/06/10 03:28:55;;;;;;;;;9.20;9.20;;;;;;;;2009753;28;1819072;-84
2023/06/10 03:30:05;;;;;;;;;9.00;9.00;;;;;;;;1984004;28;2753339;-80
2023/06/10 03:31:16;;;;;;;;;7.00;7.00;;;;;;;;1982309;28;2734641;-81
2023/06/10 03:32:27;;;;;;;;;8.00;7.50;;;;;;;;1976410;28;2735114;-80
2023/06/10 03:33:38;;;;;;;;;9.50;9.00;;;;;;;;1993824;28;2753431;-80
2023/06/10 03:34:49;;;;;;;;;11.00;9.00;;;;;;;;1971963;28;2760638;-80
2023/06/10 03:36:00;;;;;;;;;7.33;7.33;;;;;;;;1982835;28;1818039;-84
2023/06/10 03:37:13;;;;;;;;;9.00;8.67;;;;;;;;2015171;28;1807532;-80
2023/06/10 03:38:23;;;;;;;;;9.50;9.50;;;;;;;;1978496;28;2760690;-79
2023/06/10 03:39:34;;;;;;;;;10.50;10.00;;;;;;;;1971266;28;2781979;-79
2023/06/10 03:40:45;;;;;;;;;9.00;9.00;;;;;;;;1998624;28;2758613;-84
2023/06/10 03:41:57;;;;;;;;;9.20;8.60;;;;;;;;1991252;28;1820090;-83
2023/06/10 03:43:08;;;;;;;;;7.50;7.00;;;;;;;;1947883;28;2737714;-83
2023/06/10 03:44:19;;;;;;;;;7.60;7.60;;;;;;;;1992338;28;1821178;-84
2023/06/10 03:45:30;;;;;;;;;8.00;8.00;;;;;;;;1982848;28;2733682;-83
2023/06/10 03:46:41;;;;;;;;;8.50;7.00;;;;;;;;2005634;28;2481478;-82
2023/06/10 03:47:52;;;;;;;;;7.33;7.33;;;;;;;;2005064;28;2738374;-82
2023/06/10 03:49:03;;;;;;;;;5.67;5.67;;;;;;;;2001922;28;2743052;-82
2023/06/10 03:50:13;;;;;;;;;7.33;7.33;;;;;;;;1986563;28;3460171;-87
2023/06/10 03:51:24;;;;;;;;;9.00;7.00;;;;;;;;2010797;28;1818007;-87
2023/06/10 03:52:35;;;;;;;;;10.00;9.00;;;;;;;;1975056;28;2761779;-86
2023/06/10 03:53:46;;;;;;;;;9.50;7.50;;;;;;;;1948923;28;2746048;-82
2023/06/10 03:54:57;;;;;;;;;11.50;10.00;;;;;;;;1979195;28;2778415;-82
2023/06/10 03:56:08;;;;;;;;;11.00;9.00;;;;;;;;1999010;28;2768983;-82
2023/06/10 03:57:18;;;;;;;;;8.50;8.00;;;;;;;;1998009;28;2740879;-87
2023/06/10 03:58:29;;;;;;;;;11.50;8.00;;;;;;;;2000032;28;2761684;-85
2023/06/10 03:59:41;;;;;;;;;8.00;8.00;;;;;;;;1997397;28;2750219;-87
2023/06/10 04:00:52;;;;;;;;;9.00;9.00;;;;;;;;1991877;28;2748163;-86
2023/06/10 04:02:04;;;;;;;;;9.33;8.33;;;;;;;;1983755;28;2772215;-85
2023/06/10 04:03:15;;;;;;;;;6.00;6.00;;;;;;;;1985857;28;2473785;-86
2023/06/10 04:04:26;;;;;;;;;8.33;8.00;;;;;;;;2011143;28;1813804;-82
2023/06/10 04:05:38;;;;;;;;;8.60;8.60;;;;;;;;2007884;28;1821621;-82
2023/06/10 04:06:49;;;;;;;;;7.33;7.00;;;;;;;;1955180;28;2739239;-82
2023/06/10 04:08:01;;;;;;;;;9.50;8.00;;;;;;;;1978134;28;2747145;-86
2023/06/10 04:09:14;;;;;;;;;10.00;9.33;;;;;;;;2006128;28;1819093;-85
2023/06/10 04:10:25;;;;;;;;;11.00;10.00;;;;;;;;1954424;28;2794141;-86
2023/06/10 04:11:36;;;;;;;;;9.00;9.00;;;;;;;;1965922;28;2756475;-87
2023/06/10 04:12:46;;;;;;;;;7.00;7.00;;;;;;;;1984337;28;2741925;-88
2023/06/10 04:13:57;;;;;;;;;8.25;8.00;;;;;;;;2002041;28;1818997;-86
2023/06/10 04:15:08;;;;;;;;;7.67;7.67;;;;;;;;1978644;28;2744078;-86
2023/06/10 04:16:20;;;;;;;;;11.75;9.75;;;;;;;;2005609;28;1820055;-86
2023/06/10 04:17:31;;;;;;;;;7.33;7.00;;;;;;;;1978485;28;2739905;-84
2023/06/10 04:18:42;;;;;;;;;10.75;9.25;;;;;;;;1999383;28;1820552;-85
2023/06/10 04:19:54;;;;;;;;;9.50;9.50;;;;;;;;1971913;28;2758638;-84
2023/06/10 04:21:05;;;;;;;;;8.00;7.50;;;;;;;;1963128;28;1816989;-84
2023/06/10 04:22:16;;;;;;;;;8.00;8.00;;;;;;;;1970191;28;2745156;-86
2023/06/10 04:23:27;;;;;;;;;9.00;7.00;;;;;;;;1945214;28;2746461;-86
2023/06/10 04:24:39;;;;;;;;;12.17;10.50;;;;;;;;1987374;28;2789807;-86
2023/06/10 04:25:50;;;;;;;;;9.00;9.00;;;;;;;;1974859;28;2752343;-85
2023/06/10 04:27:03;;;;;;;;;10.50;8.50;;;;;;;;2000101;28;2766981;-85
2023/06/10 04:28:13;;;;;;;;;8.00;8.00;;;;;;;;1967411;28;2742058;-85
2023/06/10 04:29:24;;;;;;;;;7.67;7.67;;;;;;;;1978749;28;3452344;-85
2023/06/10 04:30:35;;;;;;;;;11.00;8.00;;;;;;;;1989419;28;2763839;-84
2023/06/10 04:31:46;;;;;;;;;8.00;7.00;;;;;;;;2008742;28;1810202;-85
2023/06/10 04:32:57;;;;;;;;;8.00;8.00;;;;;;;;1968812;28;1835714;-86
2023/06/10 04:34:08;;;;;;;;;10.40;8.60;;;;;;;;1984842;28;1822126;-85
2023/06/10 04:35:19;;;;;;;;;9.00;9.00;;;;;;;;1975775;28;2742994;-82
2023/06/10 04:36:29;;;;;;;;;8.00;8.00;;;;;;;;2010423;28;1821164;-82
2023/06/10 04:37:40;;;;;;;;;8.00;8.00;;;;;;;;1973318;28;2735667;-82
2023/06/10 04:38:53;;;;;;;;;9.67;9.00;;;;;;;;2009452;28;1818022;-84
2023/06/10 04:40:05;;;;;;;;;13.00;10.00;;;;;;;;1970574;28;2798236;-84
2023/06/10 04:41:19;;;;;;;;;10.00;9.67;;;;;;;;1980558;28;1819118;-88
2023/06/10 04:42:29;;;;;;;;;12.00;8.50;;;;;;;;1952235;28;2759640;-89
2023/06/10 04:43:40;;;;;;;;;10.50;9.00;;;;;;;;1983460;28;2759676;-89
2023/06/10 04:44:51;;;;;;;;;9.00;8.50;;;;;;;;1998500;28;2745019;-88
2023/06/10 04:46:02;;;;;;;;;10.00;7.00;;;;;;;;1999704;28;3466263;-88
2023/06/10 04:47:13;;;;;;;;;10.50;9.00;;;;;;;;1994031;28;2760758;-88
2023/06/10 04:48:24;;;;;;;;;11.00;8.75;;;;;;;;2006316;28;1819042;-88
2023/06/10 04:49:35;;;;;;;;;9.33;9.33;;;;;;;;1981134;28;3486686;-87
2023/06/10 04:50:45;;;;;;;;;8.00;7.00;;;;;;;;1977888;28;2741974;-88
2023/06/10 04:51:56;;;;;;;;;10.00;9.00;;;;;;;;2000697;28;2767970;-85
2023/06/10 04:53:08;;;;;;;;;8.00;8.00;;;;;;;;1996825;28;1820121;-84
2023/06/10 04:54:18;;;;;;;;;9.00;9.00;;;;;;;;1969054;28;2753345;-85
2023/06/10 04:55:29;;;;;;;;;9.00;9.00;;;;;;;;1994114;28;2748221;-85
2023/06/10 04:56:40;;;;;;;;;9.50;7.00;;;;;;;;1999773;28;2743972;-84
2023/06/10 04:57:51;;;;;;;;;8.25;8.25;;;;;;;;2008123;28;1819057;-85
2023/06/10 04:59:03;;;;;;;;;9.80;9.20;;;;;;;;2007811;28;1825382;-85
2023/06/10 05:00:14;;;;;;;;;9.00;8.00;;;;;;;;1954764;28;2741956;-85
2023/06/10 05:01:25;;;;;;;;;8.00;8.00;;;;;;;;1994627;28;2741933;-84
2023/06/10 05:02:35;;;;;;;;;9.50;8.50;;;;;;;;2006404;28;1819082;-85
2023/06/10 05:03:46;;;;;;;;;9.00;8.00;;;;;;;;1958776;28;2752341;-85
2023/06/10 05:04:57;;;;;;;;;5.67;5.67;;;;;;;;2003866;28;2731520;-85
2023/06/10 05:06:09;;;;;;;;;9.00;8.25;;;;;;;;1993258;28;1819039;-85
2023/06/10 05:07:20;;;;;;;;;7.75;7.50;;;;;;;;1993442;28;1812752;-85
2023/06/10 05:08:32;;;;;;;;;8.00;8.00;;;;;;;;1993541;28;1819143;-85
2023/06/10 05:09:45;;;;;;;;;9.50;8.50;;;;;;;;2010354;28;1819084;-85
2023/06/10 05:10:55;;;;;;;;;7.67;6.00;;;;;;;;1949770;28;3457548;-85
2023/06/10 05:12:06;;;;;;;;;12.00;11.00;;;;;;;;1998213;28;2791927;-85
2023/06/10 05:13:17;;;;;;;;;8.00;8.00;;;;;;;;1980309;28;2742974;-85
2023/06/10 05:14:28;;;;;;;;;8.00;8.00;;;;;;;;1980507;28;2742029;-85
2023/06/10 05:15:40;;;;;;;;;9.00;9.00;;;;;;;;1997892;28;2746103;-85
2023/06/10 05:16:54;;;;;;;;;7.67;7.50;;;;;;;;2008617;28;1821181;-85
2023/06/10 05:18:04;;;;;;;;;11.00;8.00;;;;;;;;1954255;28;2764917;-83
2023/06/10 05:19:16;;;;;;;;;9.00;8.00;;;;;;;;1999628;28;2748198;-87
2023/06/10 05:20:26;;;;;;;;;9.00;9.00;;;;;;;;1978694;28;3453394;-84
2023/06/10 05:21:38;;;;;;;;;7.50;7.33;;;;;;;;1998134;28;2739813;-84
2023/06/10 05:22:49;;;;;;;;;7.50;7.50;;;;;;;;2006274;28;1819025;-84
2023/06/10 05:23:59;;;;;;;;;9.00;9.00;;;;;;;;1979809;28;2751285;-84
2023/06/10 05:25:10;;;;;;;;;9.00;7.00;;;;;;;;1998763;28;2740890;-84
2023/06/10 05:26:21;;;;;;;;;7.25;7.25;;;;;;;;2007943;28;1819013;-84
2023/06/10 05:27:31;;;;;;;;;8.67;6.00;;;;;;;;1979336;28;2738870;-83
2023/06/10 05:28:42;;;;;;;;;9.00;6.25;;;;;;;;2007552;28;1820106;-83
2023/06/10 05:29:54;;;;;;;;;7.25;7.25;;;;;;;;1990567;28;1829507;-83
2023/06/10 05:31:04;;;;;;;;;8.00;8.00;;;;;;;;1985592;28;1814835;-83
2023/06/10 05:32:15;;;;;;;;;8.33;8.33;;;;;;;;1981112;28;1835659;-84
2023/06/10 05:33:26;;;;;;;;;11.00;11.00;;;;;;;;1973985;28;2791989;-84
2023/06/10 05:34:37;;;;;;;;;7.00;7.00;;;;;;;;1971020;28;3457486;-84
2023/06/10 05:35:49;;;;;;;;;10.67;9.17;;;;;;;;1989711;28;2786729;-84
2023/06/10 05:37:00;;;;;;;;;12.50;9.00;;;;;;;;1973365;28;2759053;-84
2023/06/10 05:38:12;;;;;;;;;8.83;8.17;;;;;;;;1993775;28;2766903;-85
2023/06/10 05:39:23;;;;;;;;;8.00;8.00;;;;;;;;1998015;28;2750253;-85
2023/06/10 05:40:34;;;;;;;;;7.25;7.25;;;;;;;;2008589;28;1819141;-85
2023/06/10 05:41:47;;;;;;;;;9.33;8.00;;;;;;;;2002645;28;1819549;-85
2023/06/10 05:42:58;;;;;;;;;9.00;8.00;;;;;;;;1948924;28;2746080;-86
2023/06/10 05:44:09;;;;;;;;;8.50;7.75;;;;;;;;2001970;28;1819078;-85
2023/06/10 05:45:19;;;;;;;;;8.00;7.50;;;;;;;;1981659;28;2740910;-85
2023/06/10 05:46:30;;;;;;;;;9.00;8.25;;;;;;;;1998341;28;1822658;-85
2023/06/10 05:47:40;;;;;;;;;8.00;6.67;;;;;;;;1954082;28;3456460;-85
2023/06/10 05:48:51;;;;;;;;;8.00;7.00;;;;;;;;1995874;28;2738814;-86
2023/06/10 05:50:06;;;;;;;;;8.00;7.00;;;;;;;;1987950;28;1827389;-86
2023/06/10 05:51:18;;;;;;;;;11.50;8.00;;;;;;;;1990000;28;1827369;-84
2023/06/10 05:52:28;;;;;;;;;11.00;8.00;;;;;;;;1977701;28;3481222;-84
2023/06/10 05:53:39;;;;;;;;;9.00;8.00;;;;;;;;1990150;28;2751343;-84
2023/06/10 05:54:50;;;;;;;;;8.00;8.00;;;;;;;;1981378;28;2737738;-85
2023/06/10 05:56:01;;;;;;;;;9.00;8.00;;;;;;;;2002856;28;2749302;-85
2023/06/10 05:57:12;;;;;;;;;6.33;5.33;;;;;;;;1997344;28;2745081;-86
2023/06/10 05:58:24;;;;;;;;;7.20;7.20;;;;;;;;2014769;28;1816989;-85
2023/06/10 05:59:34;;;;;;;;;10.00;8.00;;;;;;;;1985541;28;2756558;-87
2023/06/10 06:00:45;;;;;;;;;11.00;8.25;;;;;;;;2004953;28;1821117;-81
2023/06/10 06:01:55;;;;;;;;;5.00;4.00;;;;;;;;1956419;28;2742994;-82
2023/06/10 06:03:08;;;;;;;;;9.00;9.00;;;;;;;;2006846;28;2475209;-82
2023/06/10 06:04:18;;;;;;;;;9.00;9.00;;;;;;;;1981087;28;2738815;-83
2023/06/10 06:05:34;;;;;;;;;9.25;8.25;;;;;;;;2008766;28;1819101;-83
2023/06/10 06:06:44;;;;;;;;;8.33;7.00;;;;;;;;1972378;28;3440954;-83
2023/06/10 06:07:55;;;;;;;;;7.50;7.50;;;;;;;;1995619;28;2471864;-83
2023/06/10 06:09:06;;;;;;;;;8.00;7.33;;;;;;;;2004296;28;1812797;-83
2023/06/10 06:10:18;;;;;;;;;8.75;8.75;;;;;;;;1986757;28;1830585;-83
2023/06/10 06:11:29;;;;;;;;;8.00;7.50;;;;;;;;1989507;28;1822774;-83
2023/06/10 06:12:39;;;;;;;;;8.50;8.00;;;;;;;;1970108;28;2746155;-82
2023/06/10 06:13:50;;;;;;;;;6.67;6.67;;;;;;;;1997252;28;2732552;-83
2023/06/10 06:15:01;;;;;;;;;8.00;8.00;;;;;;;;1985213;28;2740948;-83
2023/06/10 06:16:14;;;;;;;;;5.20;4.20;;;;;;;;1994666;28;2730463;-82
2023/06/10 06:17:24;;;;;;;;;6.33;5.00;;;;;;;;1976796;28;3468029;-85
2023/06/10 06:18:35;;;;;;;;;9.33;7.00;;;;;;;;1999972;28;3470526;-83
2023/06/10 06:19:47;;;;;;;;;7.00;7.00;;;;;;;;2001203;28;2743001;-83
2023/06/10 06:20:57;;;;;;;;;9.00;9.00;;;;;;;;1969245;28;2751350;-82
2023/06/10 06:22:08;;;;;;;;;10.00;9.00;;;;;;;;1997365;28;2754440;-83
2023/06/10 06:23:19;;;;;;;;;7.75;7.25;;;;;;;;2011679;28;1820082;-82
2023/06/10 06:24:30;;;;;;;;;7.33;7.33;;;;;;;;1988953;28;2736741;-82
2023/06/10 06:25:41;;;;;;;;;9.00;7.33;;;;;;;;2008713;28;3457537;-82
2023/06/10 06:26:51;;;;;;;;;7.67;7.67;;;;;;;;1992127;28;3455985;-81
2023/06/10 06:28:02;;;;;;;;;2.00;2.00;;;;;;;;1992072;28;2744084;-81
2023/06/10 06:29:13;;;;;;;;;10.50;8.75;;;;;;;;1997267;28;1820638;-81
2023/06/10 06:30:24;;;;;;;;;10.50;9.00;;;;;;;;1977655;28;2766971;-81
2023/06/10 06:31:35;;;;;;;;;9.00;8.00;;;;;;;;1976377;28;2735651;-81
2023/06/10 06:32:46;;;;;;;;;8.67;7.67;;;;;;;;2005600;28;3456850;-81
2023/06/10 06:33:56;;;;;;;;;8.00;8.00;;;;;;;;1993218;28;3449211;-81
2023/06/10 06:35:07;;;;;;;;;11.00;8.00;;;;;;;;1995364;28;2766956;-84
2023/06/10 06:36:18;;;;;;;;;9.00;8.00;;;;;;;;1996008;28;2735684;-81
2023/06/10 06:37:29;;;;;;;;;6.67;6.67;;;;;;;;1996365;28;3450281;-82
2023/06/10 06:38:40;;;;;;;;;9.00;8.75;;;;;;;;2007560;28;1819094;-82
2023/06/10 06:39:51;;;;;;;;;7.00;5.00;;;;;;;;1987943;28;2741937;-82
2023/06/10 06:41:04;;;;;;;;;8.00;8.00;;;;;;;;2007703;28;1833619;-82
2023/06/10 06:42:14;;;;;;;;;9.00;8.00;;;;;;;;1972466;28;2741945;-82
2023/06/10 06:43:25;;;;;;;;;9.00;8.00;;;;;;;;1976487;28;3451251;-79
2023/06/10 06:44:36;;;;;;;;;8.00;8.00;;;;;;;;2007931;28;2735691;-85
2023/06/10 06:45:47;;;;;;;;;7.00;7.00;;;;;;;;2006790;28;2483071;-79
2023/06/10 06:46:58;;;;;;;;;8.00;7.00;;;;;;;;2002942;28;2738169;-78
2023/06/10 06:48:09;;;;;;;;;8.50;8.50;;;;;;;;1998217;28;2738764;-78
2023/06/10 06:49:20;;;;;;;;;7.00;7.00;;;;;;;;1988926;28;2727404;-79
2023/06/10 06:50:31;;;;;;;;;10.50;8.50;;;;;;;;1988949;28;2774298;-79
2023/06/10 06:51:43;;;;;;;;;9.50;8.50;;;;;;;;1976457;28;2766927;-78
2023/06/10 06:52:54;;;;;;;;;9.50;7.50;;;;;;;;1994957;28;2746611;-78